sensor_id;sensor_type;location;lat;lon;timestamp;temperature;humidity
5226;DHT22;2632;51.666;7.146;2023-02-15T00:01:35;1.40;99.90
5226;DHT22;2632;51.666;7.146;2023-02-15T00:04:03;1.40;99.90
5226;DHT22;2632;51.666;7.146;2023-02-15T00:06:30;1.40;99.90
5226;DHT22;2632;51.666;7.146;2023-02-15T00:08:57;1.40;99.90
5226;DHT22;2632;51.666;7.146;2023-02-15T00:11:24;1.40;99.90
5226;DHT22;2632;51.666;7.146;2023-02-15T00:14:12;1.30;99.90
5226;DHT22;2632;51.666;7.146;2023-02-15T00:16:40;1.30;99.90
5226;DHT22;2632;51.666;7.146;2023-02-15T00:19:08;1.30;99.90
5226;DHT22;2632;51.666;7.146;2023-02-15T00:21:36;1.20;99.90
5226;DHT22;2632;51.666;7.146;2023-02-15T00:24:06;1.30;99.90
5226;DHT22;2632;51.666;7.146;2023-02-15T00:26:33;1.30;99.90
5226;DHT22;2632;51.666;7.146;2023-02-15T00:29:00;1.30;99.90
5226;DHT22;2632;51.666;7.146;2023-02-15T00:31:28;1.20;99.90
5226;DHT22;2632;51.666;7.146;2023-02-15T00:34:07;1.10;99.90
5226;DHT22;2632;51.666;7.146;2023-02-15T00:36:36;1.20;99.90
5226;DHT22;2632;51.666;7.146;2023-02-15T00:39:03;1.20;99.90
5226;DHT22;2632;51.666;7.146;2023-02-15T00:41:31;1.20;99.90
5226;DHT22;2632;51.666;7.146;2023-02-15T00:43:58;1.20;99.90
5226;DHT22;2632;51.666;7.146;2023-02-15T00:46:25;1.10;99.90
5226;DHT22;2632;51.666;7.146;2023-02-15T00:48:52;1.10;99.90
5226;DHT22;2632;51.666;7.146;2023-02-15T00:51:19;1.10;99.90
5226;DHT22;2632;51.666;7.146;2023-02-15T00:53:47;1.00;99.90
5226;DHT22;2632;51.666;7.146;2023-02-15T00:56:13;1.00;99.90
5226;DHT22;2632;51.666;7.146;2023-02-15T00:58:40;0.90;99.90
5226;DHT22;2632;51.666;7.146;2023-02-15T01:01:13;0.90;99.90
5226;DHT22;2632;51.666;7.146;2023-02-15T01:03:40;0.90;99.90
5226;DHT22;2632;51.666;7.146;2023-02-15T01:06:10;1.00;99.90
5226;DHT22;2632;51.666;7.146;2023-02-15T01:08:37;0.80;99.90
5226;DHT22;2632;51.666;7.146;2023-02-15T01:11:07;0.80;99.90
5226;DHT22;2632;51.666;7.146;2023-02-15T01:13:34;0.80;99.90
5226;DHT22;2632;51.666;7.146;2023-02-15T01:16:02;0.80;99.90
5226;DHT22;2632;51.666;7.146;2023-02-15T01:18:30;0.80;99.90
5226;DHT22;2632;51.666;7.146;2023-02-15T01:20:57;0.80;99.90
5226;DHT22;2632;51.666;7.146;2023-02-15T01:23:24;0.70;99.90
5226;DHT22;2632;51.666;7.146;2023-02-15T01:25:50;0.70;99.90
5226;DHT22;2632;51.666;7.146;2023-02-15T01:28:17;0.60;99.90
5226;DHT22;2632;51.666;7.146;2023-02-15T01:30:44;0.60;99.90
5226;DHT22;2632;51.666;7.146;2023-02-15T01:33:10;0.60;99.90
5226;DHT22;2632;51.666;7.146;2023-02-15T01:35:45;0.50;99.90
5226;DHT22;2632;51.666;7.146;2023-02-15T01:38:13;0.50;99.90
5226;DHT22;2632;51.666;7.146;2023-02-15T01:40:40;0.50;99.90
5226;DHT22;2632;51.666;7.146;2023-02-15T01:43:11;0.50;99.90
5226;DHT22;2632;51.666;7.146;2023-02-15T01:45:39;0.60;99.90
5226;DHT22;2632;51.666;7.146;2023-02-15T01:48:24;0.50;99.90
5226;DHT22;2632;51.666;7.146;2023-02-15T01:50:59;0.50;99.90
5226;DHT22;2632;51.666;7.146;2023-02-15T01:53:36;0.50;99.90
5226;DHT22;2632;51.666;7.146;2023-02-15T01:56:10;0.50;99.90
5226;DHT22;2632;51.666;7.146;2023-02-15T01:58:39;0.50;99.90
5226;DHT22;2632;51.666;7.146;2023-02-15T02:01:08;0.50;99.90
5226;DHT22;2632;51.666;7.146;2023-02-15T02:06:07;0.50;99.90
5226;DHT22;2632;51.666;7.146;2023-02-15T02:08:34;0.50;99.90
5226;DHT22;2632;51.666;7.146;2023-02-15T02:11:01;0.40;99.90
5226;DHT22;2632;51.666;7.146;2023-02-15T02:13:28;0.30;99.90
5226;DHT22;2632;51.666;7.146;2023-02-15T02:21:49;0.20;99.90
5226;DHT22;2632;51.666;7.146;2023-02-15T02:24:44;0.20;99.90
5226;DHT22;2632;51.666;7.146;2023-02-15T02:35:51;0.30;99.90
5226;DHT22;2632;51.666;7.146;2023-02-15T02:38:33;0.30;99.90
5226;DHT22;2632;51.666;7.146;2023-02-15T02:41:18;0.30;99.90
5226;DHT22;2632;51.666;7.146;2023-02-15T02:46:53;0.20;99.90
5226;DHT22;2632;51.666;7.146;2023-02-15T02:49:37;0.20;99.90
5226;DHT22;2632;51.666;7.146;2023-02-15T02:55:17;0.20;99.90
5226;DHT22;2632;51.666;7.146;2023-02-15T02:58:15;0.20;99.90
5226;DHT22;2632;51.666;7.146;2023-02-15T03:00:53;0.20;99.90
5226;DHT22;2632;51.666;7.146;2023-02-15T03:03:28;0.20;99.90
5226;DHT22;2632;51.666;7.146;2023-02-15T03:06:00;0.10;99.90
5226;DHT22;2632;51.666;7.146;2023-02-15T03:08:35;0.00;99.90
5226;DHT22;2632;51.666;7.146;2023-02-15T03:11:04;0.00;99.90
5226;DHT22;2632;51.666;7.146;2023-02-15T03:13:32;0.00;99.90
5226;DHT22;2632;51.666;7.146;2023-02-15T03:16:00;-0.10;99.90
5226;DHT22;2632;51.666;7.146;2023-02-15T03:18:50;0.00;99.90
5226;DHT22;2632;51.666;7.146;2023-02-15T03:21:31;-0.10;99.90
5226;DHT22;2632;51.666;7.146;2023-02-15T03:24:04;0.00;99.90
5226;DHT22;2632;51.666;7.146;2023-02-15T03:26:34;-0.10;99.90
5226;DHT22;2632;51.666;7.146;2023-02-15T03:29:03;-0.10;99.90
5226;DHT22;2632;51.666;7.146;2023-02-15T03:31:33;0.00;99.90
5226;DHT22;2632;51.666;7.146;2023-02-15T03:34:04;0.00;99.90
5226;DHT22;2632;51.666;7.146;2023-02-15T03:39:40;-0.10;99.90
5226;DHT22;2632;51.666;7.146;2023-02-15T03:42:16;-0.10;99.90
5226;DHT22;2632;51.666;7.146;2023-02-15T03:44:51;0.00;99.90
5226;DHT22;2632;51.666;7.146;2023-02-15T03:47:24;0.00;99.90
5226;DHT22;2632;51.666;7.146;2023-02-15T03:49:59;0.00;99.90
5226;DHT22;2632;51.666;7.146;2023-02-15T03:52:28;0.00;99.90
5226;DHT22;2632;51.666;7.146;2023-02-15T03:54:55;-0.10;99.90
5226;DHT22;2632;51.666;7.146;2023-02-15T03:57:25;-0.10;99.90
5226;DHT22;2632;51.666;7.146;2023-02-15T04:00:18;0.00;99.90
5226;DHT22;2632;51.666;7.146;2023-02-15T04:05:54;-0.10;99.90
5226;DHT22;2632;51.666;7.146;2023-02-15T04:08:21;-0.10;99.90
5226;DHT22;2632;51.666;7.146;2023-02-15T04:11:08;-0.10;99.90
5226;DHT22;2632;51.666;7.146;2023-02-15T04:13:34;-0.10;99.90
5226;DHT22;2632;51.666;7.146;2023-02-15T04:16:04;-0.10;99.90
5226;DHT22;2632;51.666;7.146;2023-02-15T04:18:38;-0.10;99.90
5226;DHT22;2632;51.666;7.146;2023-02-15T04:21:25;0.00;99.90
5226;DHT22;2632;51.666;7.146;2023-02-15T04:24:12;-0.10;99.90
5226;DHT22;2632;51.666;7.146;2023-02-15T04:26:58;-0.20;99.90
5226;DHT22;2632;51.666;7.146;2023-02-15T04:29:25;-0.20;99.90
5226;DHT22;2632;51.666;7.146;2023-02-15T04:31:55;-0.20;99.90
5226;DHT22;2632;51.666;7.146;2023-02-15T04:34:22;-0.20;99.90
5226;DHT22;2632;51.666;7.146;2023-02-15T04:36:49;-0.10;99.90
5226;DHT22;2632;51.666;7.146;2023-02-15T04:39:17;-0.20;99.90
5226;DHT22;2632;51.666;7.146;2023-02-15T04:41:45;-0.20;99.90
5226;DHT22;2632;51.666;7.146;2023-02-15T04:44:12;-0.20;99.90
5226;DHT22;2632;51.666;7.146;2023-02-15T04:46:38;-0.10;99.90
5226;DHT22;2632;51.666;7.146;2023-02-15T04:49:05;-0.10;99.90
5226;DHT22;2632;51.666;7.146;2023-02-15T04:51:32;-0.10;99.90
5226;DHT22;2632;51.666;7.146;2023-02-15T04:53:58;-0.20;99.90
5226;DHT22;2632;51.666;7.146;2023-02-15T04:56:25;-0.20;99.90
5226;DHT22;2632;51.666;7.146;2023-02-15T04:58:51;-0.20;99.90
5226;DHT22;2632;51.666;7.146;2023-02-15T05:01:18;-0.30;99.90
5226;DHT22;2632;51.666;7.146;2023-02-15T05:03:44;-0.30;99.90
5226;DHT22;2632;51.666;7.146;2023-02-15T05:06:11;-0.30;99.90
5226;DHT22;2632;51.666;7.146;2023-02-15T05:08:38;-0.30;99.90
5226;DHT22;2632;51.666;7.146;2023-02-15T05:11:04;-0.30;99.90
5226;DHT22;2632;51.666;7.146;2023-02-15T05:13:31;-0.30;99.90
5226;DHT22;2632;51.666;7.146;2023-02-15T05:15:58;-0.30;99.90
5226;DHT22;2632;51.666;7.146;2023-02-15T05:18:24;-0.30;99.90
5226;DHT22;2632;51.666;7.146;2023-02-15T05:20:51;-0.30;99.90
5226;DHT22;2632;51.666;7.146;2023-02-15T05:23:18;-0.30;99.90
5226;DHT22;2632;51.666;7.146;2023-02-15T05:25:48;-0.30;99.90
5226;DHT22;2632;51.666;7.146;2023-02-15T05:28:34;-0.30;99.90
5226;DHT22;2632;51.666;7.146;2023-02-15T05:31:13;-0.30;99.90
5226;DHT22;2632;51.666;7.146;2023-02-15T05:33:41;-0.30;99.90
5226;DHT22;2632;51.666;7.146;2023-02-15T05:36:08;-0.30;99.90
5226;DHT22;2632;51.666;7.146;2023-02-15T05:38:35;-0.40;99.90
5226;DHT22;2632;51.666;7.146;2023-02-15T05:41:05;-0.40;99.90
5226;DHT22;2632;51.666;7.146;2023-02-15T05:43:32;-0.40;99.90
5226;DHT22;2632;51.666;7.146;2023-02-15T05:45:59;-0.40;99.90
5226;DHT22;2632;51.666;7.146;2023-02-15T05:48:27;-0.40;99.90
5226;DHT22;2632;51.666;7.146;2023-02-15T05:51:04;-0.40;99.90
5226;DHT22;2632;51.666;7.146;2023-02-15T05:53:34;-0.30;99.90
5226;DHT22;2632;51.666;7.146;2023-02-15T05:56:05;-0.30;99.90
5226;DHT22;2632;51.666;7.146;2023-02-15T05:58:37;-0.20;99.90
5226;DHT22;2632;51.666;7.146;2023-02-15T06:01:15;-0.30;99.90
5226;DHT22;2632;51.666;7.146;2023-02-15T06:03:42;-0.30;99.90
5226;DHT22;2632;51.666;7.146;2023-02-15T06:06:09;-0.30;99.90
5226;DHT22;2632;51.666;7.146;2023-02-15T06:08:36;-0.30;99.90
5226;DHT22;2632;51.666;7.146;2023-02-15T06:11:04;-0.30;99.90
5226;DHT22;2632;51.666;7.146;2023-02-15T06:13:31;-0.30;99.90
5226;DHT22;2632;51.666;7.146;2023-02-15T06:15:58;-0.40;99.90
5226;DHT22;2632;51.666;7.146;2023-02-15T06:18:25;-0.30;99.90
5226;DHT22;2632;51.666;7.146;2023-02-15T06:20:51;-0.30;99.90
5226;DHT22;2632;51.666;7.146;2023-02-15T06:23:18;-0.30;99.90
5226;DHT22;2632;51.666;7.146;2023-02-15T06:25:46;-0.30;99.90
5226;DHT22;2632;51.666;7.146;2023-02-15T06:28:12;-0.40;99.90
5226;DHT22;2632;51.666;7.146;2023-02-15T06:30:39;-0.40;99.90
5226;DHT22;2632;51.666;7.146;2023-02-15T06:33:06;-0.40;99.90
5226;DHT22;2632;51.666;7.146;2023-02-15T06:35:32;-0.40;99.90
5226;DHT22;2632;51.666;7.146;2023-02-15T06:37:59;-0.40;99.90
5226;DHT22;2632;51.666;7.146;2023-02-15T06:40:26;-0.40;99.90
5226;DHT22;2632;51.666;7.146;2023-02-15T06:42:52;-0.30;99.90
5226;DHT22;2632;51.666;7.146;2023-02-15T06:45:19;-0.20;99.90
5226;DHT22;2632;51.666;7.146;2023-02-15T06:47:45;-0.20;99.90
5226;DHT22;2632;51.666;7.146;2023-02-15T06:50:12;-0.10;99.90
5226;DHT22;2632;51.666;7.146;2023-02-15T06:52:38;-0.10;99.90
5226;DHT22;2632;51.666;7.146;2023-02-15T06:55:06;-0.10;99.90
5226;DHT22;2632;51.666;7.146;2023-02-15T06:57:32;-0.10;99.90
5226;DHT22;2632;51.666;7.146;2023-02-15T06:59:59;-0.10;99.90
5226;DHT22;2632;51.666;7.146;2023-02-15T07:02:26;-0.10;99.90
5226;DHT22;2632;51.666;7.146;2023-02-15T07:04:53;-0.10;99.90
5226;DHT22;2632;51.666;7.146;2023-02-15T07:07:19;-0.10;99.90
5226;DHT22;2632;51.666;7.146;2023-02-15T07:09:46;-0.10;99.90
5226;DHT22;2632;51.666;7.146;2023-02-15T07:12:13;0.00;99.90
5226;DHT22;2632;51.666;7.146;2023-02-15T07:14:58;0.10;99.90
5226;DHT22;2632;51.666;7.146;2023-02-15T07:17:25;0.10;99.90
5226;DHT22;2632;51.666;7.146;2023-02-15T07:20:04;0.10;99.90
5226;DHT22;2632;51.666;7.146;2023-02-15T07:22:31;0.10;99.90
5226;DHT22;2632;51.666;7.146;2023-02-15T07:25:00;0.20;99.90
5226;DHT22;2632;51.666;7.146;2023-02-15T07:27:27;0.20;99.90
5226;DHT22;2632;51.666;7.146;2023-02-15T07:29:53;0.30;99.90
5226;DHT22;2632;51.666;7.146;2023-02-15T07:32:20;0.30;99.90
5226;DHT22;2632;51.666;7.146;2023-02-15T07:34:46;0.40;99.90
5226;DHT22;2632;51.666;7.146;2023-02-15T07:37:13;0.50;99.90
5226;DHT22;2632;51.666;7.146;2023-02-15T07:39:40;0.70;99.90
5226;DHT22;2632;51.666;7.146;2023-02-15T07:42:06;0.70;99.90
5226;DHT22;2632;51.666;7.146;2023-02-15T07:44:33;0.80;99.90
5226;DHT22;2632;51.666;7.146;2023-02-15T07:46:59;0.90;99.90
5226;DHT22;2632;51.666;7.146;2023-02-15T07:49:26;1.00;99.90
5226;DHT22;2632;51.666;7.146;2023-02-15T07:51:52;1.10;99.90
5226;DHT22;2632;51.666;7.146;2023-02-15T07:54:19;1.30;99.90
5226;DHT22;2632;51.666;7.146;2023-02-15T07:56:45;2.40;99.90
5226;DHT22;2632;51.666;7.146;2023-02-15T07:59:13;5.80;99.90
5226;DHT22;2632;51.666;7.146;2023-02-15T08:01:39;8.80;97.70
5226;DHT22;2632;51.666;7.146;2023-02-15T08:04:07;11.00;86.80
5226;DHT22;2632;51.666;7.146;2023-02-15T08:06:35;12.10;73.40
5226;DHT22;2632;51.666;7.146;2023-02-15T08:09:06;12.90;65.20
5226;DHT22;2632;51.666;7.146;2023-02-15T08:11:35;14.20;59.00
5226;DHT22;2632;51.666;7.146;2023-02-15T08:14:10;15.10;54.90
5226;DHT22;2632;51.666;7.146;2023-02-15T08:21:41;17.00;48.40
5226;DHT22;2632;51.666;7.146;2023-02-15T08:24:09;17.20;46.90
5226;DHT22;2632;51.666;7.146;2023-02-15T08:26:36;16.00;48.80
5226;DHT22;2632;51.666;7.146;2023-02-15T08:29:04;14.40;51.10
5226;DHT22;2632;51.666;7.146;2023-02-15T08:31:33;10.40;64.90
5226;DHT22;2632;51.666;7.146;2023-02-15T08:34:00;8.30;91.60
5226;DHT22;2632;51.666;7.146;2023-02-15T08:36:29;6.90;97.40
5226;DHT22;2632;51.666;7.146;2023-02-15T08:39:01;5.70;99.90
5226;DHT22;2632;51.666;7.146;2023-02-15T08:41:30;5.10;99.90
5226;DHT22;2632;51.666;7.146;2023-02-15T08:43:59;5.10;99.90
5226;DHT22;2632;51.666;7.146;2023-02-15T08:46:28;5.30;99.90
5226;DHT22;2632;51.666;7.146;2023-02-15T08:48:56;5.60;99.90
5226;DHT22;2632;51.666;7.146;2023-02-15T08:51:24;5.90;99.90
5226;DHT22;2632;51.666;7.146;2023-02-15T08:53:54;6.00;99.90
5226;DHT22;2632;51.666;7.146;2023-02-15T08:56:32;6.10;99.90
5226;DHT22;2632;51.666;7.146;2023-02-15T08:58:59;6.40;99.90
5226;DHT22;2632;51.666;7.146;2023-02-15T09:01:28;6.40;99.90
5226;DHT22;2632;51.666;7.146;2023-02-15T09:03:58;6.50;99.90
5226;DHT22;2632;51.666;7.146;2023-02-15T09:06:26;6.60;99.90
5226;DHT22;2632;51.666;7.146;2023-02-15T09:08:54;6.90;99.90
5226;DHT22;2632;51.666;7.146;2023-02-15T09:11:23;7.00;99.90
5226;DHT22;2632;51.666;7.146;2023-02-15T09:14:02;7.10;99.90
5226;DHT22;2632;51.666;7.146;2023-02-15T09:16:32;7.20;99.90
5226;DHT22;2632;51.666;7.146;2023-02-15T09:19:00;7.40;99.90
5226;DHT22;2632;51.666;7.146;2023-02-15T09:21:36;7.50;99.90
5226;DHT22;2632;51.666;7.146;2023-02-15T09:24:06;7.70;99.90
5226;DHT22;2632;51.666;7.146;2023-02-15T09:26:36;7.80;99.90
5226;DHT22;2632;51.666;7.146;2023-02-15T09:29:03;7.90;99.90
5226;DHT22;2632;51.666;7.146;2023-02-15T09:31:41;8.00;99.90
5226;DHT22;2632;51.666;7.146;2023-02-15T09:34:12;8.10;99.90
5226;DHT22;2632;51.666;7.146;2023-02-15T09:36:40;8.40;99.90
5226;DHT22;2632;51.666;7.146;2023-02-15T09:39:11;8.40;99.90
5226;DHT22;2632;51.666;7.146;2023-02-15T09:47:48;8.90;99.90
5226;DHT22;2632;51.666;7.146;2023-02-15T09:53:32;9.20;99.90
5226;DHT22;2632;51.666;7.146;2023-02-15T09:56:15;9.50;99.90
5226;DHT22;2632;51.666;7.146;2023-02-15T09:59:03;9.70;99.30
5226;DHT22;2632;51.666;7.146;2023-02-15T10:05:21;10.40;97.70
5226;DHT22;2632;51.666;7.146;2023-02-15T10:08:21;10.60;97.00
5226;DHT22;2632;51.666;7.146;2023-02-15T10:11:15;10.70;96.30
5226;DHT22;2632;51.666;7.146;2023-02-15T10:16:48;11.00;94.70
5226;DHT22;2632;51.666;7.146;2023-02-15T10:28:17;11.70;93.50
5226;DHT22;2632;51.666;7.146;2023-02-15T10:30:51;11.90;92.60
5226;DHT22;2632;51.666;7.146;2023-02-15T10:33:40;11.80;90.70
5226;DHT22;2632;51.666;7.146;2023-02-15T10:39:10;12.30;90.50
5226;DHT22;2632;51.666;7.146;2023-02-15T10:41:53;12.40;87.90
5226;DHT22;2632;51.666;7.146;2023-02-15T10:44:39;12.40;87.60
5226;DHT22;2632;51.666;7.146;2023-02-15T10:58:38;13.10;85.50
5226;DHT22;2632;51.666;7.146;2023-02-15T11:01:21;13.30;82.80
5226;DHT22;2632;51.666;7.146;2023-02-15T11:06:59;13.90;81.50
5226;DHT22;2632;51.666;7.146;2023-02-15T11:09:37;14.20;82.80
5226;DHT22;2632;51.666;7.146;2023-02-15T11:12:10;15.30;76.00
5226;DHT22;2632;51.666;7.146;2023-02-15T11:14:52;19.00;58.00
5226;DHT22;2632;51.666;7.146;2023-02-15T11:17:28;21.90;48.00
5226;DHT22;2632;51.666;7.146;2023-02-15T11:20:33;22.70;43.60
5226;DHT22;2632;51.666;7.146;2023-02-15T11:23:02;23.00;41.40
5226;DHT22;2632;51.666;7.146;2023-02-15T11:25:31;23.00;42.20
5226;DHT22;2632;51.666;7.146;2023-02-15T11:28:00;24.00;40.10
5226;DHT22;2632;51.666;7.146;2023-02-15T11:30:40;23.60;39.60
5226;DHT22;2632;51.666;7.146;2023-02-15T11:33:18;24.00;39.50
5226;DHT22;2632;51.666;7.146;2023-02-15T11:35:53;24.70;38.80
5226;DHT22;2632;51.666;7.146;2023-02-15T11:38:23;25.00;37.50
5226;DHT22;2632;51.666;7.146;2023-02-15T11:40:55;25.20;36.50
5226;DHT22;2632;51.666;7.146;2023-02-15T11:43:35;25.60;35.50
5226;DHT22;2632;51.666;7.146;2023-02-15T11:46:05;25.40;36.10
5226;DHT22;2632;51.666;7.146;2023-02-15T11:48:32;25.40;35.80
5226;DHT22;2632;51.666;7.146;2023-02-15T11:51:01;25.90;34.40
5226;DHT22;2632;51.666;7.146;2023-02-15T11:53:33;25.70;35.30
5226;DHT22;2632;51.666;7.146;2023-02-15T11:56:00;26.10;34.30
5226;DHT22;2632;51.666;7.146;2023-02-15T12:03:50;24.80;34.90
5226;DHT22;2632;51.666;7.146;2023-02-15T12:06:35;25.90;34.90
5226;DHT22;2632;51.666;7.146;2023-02-15T12:09:14;25.60;34.20
5226;DHT22;2632;51.666;7.146;2023-02-15T12:11:44;26.50;33.80
5226;DHT22;2632;51.666;7.146;2023-02-15T12:14:12;26.90;32.80
5226;DHT22;2632;51.666;7.146;2023-02-15T12:16:47;25.00;33.20
5226;DHT22;2632;51.666;7.146;2023-02-15T12:19:37;25.30;34.60
5226;DHT22;2632;51.666;7.146;2023-02-15T12:22:16;25.60;34.10
5226;DHT22;2632;51.666;7.146;2023-02-15T12:24:46;26.10;32.90
5226;DHT22;2632;51.666;7.146;2023-02-15T12:27:15;25.70;32.40
5226;DHT22;2632;51.666;7.146;2023-02-15T12:29:48;25.10;33.40
5226;DHT22;2632;51.666;7.146;2023-02-15T12:32:24;25.30;34.10
5226;DHT22;2632;51.666;7.146;2023-02-15T12:34:55;24.90;33.80
5226;DHT22;2632;51.666;7.146;2023-02-15T12:37:29;24.10;35.80
5226;DHT22;2632;51.666;7.146;2023-02-15T12:39:59;21.80;36.80
5226;DHT22;2632;51.666;7.146;2023-02-15T12:42:27;20.90;38.20
5226;DHT22;2632;51.666;7.146;2023-02-15T12:45:01;20.20;39.20
5226;DHT22;2632;51.666;7.146;2023-02-15T12:47:30;19.30;41.50
5226;DHT22;2632;51.666;7.146;2023-02-15T12:52:37;19.30;41.50
5226;DHT22;2632;51.666;7.146;2023-02-15T12:55:26;20.90;39.70
5226;DHT22;2632;51.666;7.146;2023-02-15T13:00:41;21.40;36.30
5226;DHT22;2632;51.666;7.146;2023-02-15T13:03:19;22.00;37.00
5226;DHT22;2632;51.666;7.146;2023-02-15T13:05:50;22.10;36.10
5226;DHT22;2632;51.666;7.146;2023-02-15T13:08:21;23.30;34.60
5226;DHT22;2632;51.666;7.146;2023-02-15T13:10:57;23.90;34.40
5226;DHT22;2632;51.666;7.146;2023-02-15T13:13:27;24.40;33.10
5226;DHT22;2632;51.666;7.146;2023-02-15T13:15:59;23.40;34.20
5226;DHT22;2632;51.666;7.146;2023-02-15T13:18:33;23.60;33.80
5226;DHT22;2632;51.666;7.146;2023-02-15T13:21:12;23.20;34.30
5226;DHT22;2632;51.666;7.146;2023-02-15T13:23:42;23.70;34.50
5226;DHT22;2632;51.666;7.146;2023-02-15T13:26:16;23.80;33.90
5226;DHT22;2632;51.666;7.146;2023-02-15T13:28:48;23.00;34.10
5226;DHT22;2632;51.666;7.146;2023-02-15T13:31:19;22.70;34.50
5226;DHT22;2632;51.666;7.146;2023-02-15T13:33:56;22.80;34.20
5226;DHT22;2632;51.666;7.146;2023-02-15T13:42:25;22.30;35.70
5226;DHT22;2632;51.666;7.146;2023-02-15T14:04:48;20.10;39.20
5226;DHT22;2632;51.666;7.146;2023-02-15T14:07:39;19.80;38.70
5226;DHT22;2632;51.666;7.146;2023-02-15T14:21:19;19.10;40.70
5226;DHT22;2632;51.666;7.146;2023-02-15T14:24:26;19.00;40.30
5226;DHT22;2632;51.666;7.146;2023-02-15T14:27:09;19.00;40.20
5226;DHT22;2632;51.666;7.146;2023-02-15T14:29:57;18.70;40.50
5226;DHT22;2632;51.666;7.146;2023-02-15T14:32:42;18.60;41.10
5226;DHT22;2632;51.666;7.146;2023-02-15T14:35:15;18.60;40.20
5226;DHT22;2632;51.666;7.146;2023-02-15T14:37:49;18.50;40.00
5226;DHT22;2632;51.666;7.146;2023-02-15T14:40:51;18.20;40.40
5226;DHT22;2632;51.666;7.146;2023-02-15T14:48:57;17.70;40.80
5226;DHT22;2632;51.666;7.146;2023-02-15T15:02:19;16.50;42.50
5226;DHT22;2632;51.666;7.146;2023-02-15T15:05:02;16.30;44.10
5226;DHT22;2632;51.666;7.146;2023-02-15T15:07:44;16.10;44.40
5226;DHT22;2632;51.666;7.146;2023-02-15T15:12:45;16.10;43.80
5226;DHT22;2632;51.666;7.146;2023-02-15T15:15:34;15.90;46.00
5226;DHT22;2632;51.666;7.146;2023-02-15T15:18:10;15.50;45.90
5226;DHT22;2632;51.666;7.146;2023-02-15T15:20:57;15.30;46.30
5226;DHT22;2632;51.666;7.146;2023-02-15T15:23:42;15.40;45.40
5226;DHT22;2632;51.666;7.146;2023-02-15T15:26:26;15.20;45.60
5226;DHT22;2632;51.666;7.146;2023-02-15T15:28:55;15.10;46.50
5226;DHT22;2632;51.666;7.146;2023-02-15T15:31:45;15.30;46.20
5226;DHT22;2632;51.666;7.146;2023-02-15T15:34:49;15.40;45.80
5226;DHT22;2632;51.666;7.146;2023-02-15T15:40:36;14.50;50.90
5226;DHT22;2632;51.666;7.146;2023-02-15T15:43:34;14.30;52.20
5226;DHT22;2632;51.666;7.146;2023-02-15T15:46:13;14.10;54.80
5226;DHT22;2632;51.666;7.146;2023-02-15T15:48:46;14.00;57.90
5226;DHT22;2632;51.666;7.146;2023-02-15T15:51:18;13.80;57.10
5226;DHT22;2632;51.666;7.146;2023-02-15T15:53:48;13.80;56.90
5226;DHT22;2632;51.666;7.146;2023-02-15T15:56:21;13.60;60.90
5226;DHT22;2632;51.666;7.146;2023-02-15T15:58:54;13.50;59.90
5226;DHT22;2632;51.666;7.146;2023-02-15T16:01:31;13.50;58.80
5226;DHT22;2632;51.666;7.146;2023-02-15T16:03:59;13.50;62.30
5226;DHT22;2632;51.666;7.146;2023-02-15T16:06:36;13.30;61.50
5226;DHT22;2632;51.666;7.146;2023-02-15T16:09:17;13.30;59.10
5226;DHT22;2632;51.666;7.146;2023-02-15T16:11:56;13.20;60.00
5226;DHT22;2632;51.666;7.146;2023-02-15T16:14:30;13.00;64.20
5226;DHT22;2632;51.666;7.146;2023-02-15T16:17:00;13.00;62.60
5226;DHT22;2632;51.666;7.146;2023-02-15T16:19:39;12.90;62.90
5226;DHT22;2632;51.666;7.146;2023-02-15T16:22:15;12.80;64.50
5226;DHT22;2632;51.666;7.146;2023-02-15T16:27:29;12.40;72.30
5226;DHT22;2632;51.666;7.146;2023-02-15T16:29:57;12.40;71.20
5226;DHT22;2632;51.666;7.146;2023-02-15T16:32:26;12.30;72.80
5226;DHT22;2632;51.666;7.146;2023-02-15T16:34:55;12.20;72.50
5226;DHT22;2632;51.666;7.146;2023-02-15T16:37:28;12.10;77.10
5226;DHT22;2632;51.666;7.146;2023-02-15T16:39:57;11.90;84.60
5226;DHT22;2632;51.666;7.146;2023-02-15T16:42:24;11.30;90.10
5226;DHT22;2632;51.666;7.146;2023-02-15T16:44:56;11.00;91.90
5226;DHT22;2632;51.666;7.146;2023-02-15T16:47:26;11.00;92.10
5226;DHT22;2632;51.666;7.146;2023-02-15T16:49:55;10.90;91.20
5226;DHT22;2632;51.666;7.146;2023-02-15T16:52:25;10.90;92.40
5226;DHT22;2632;51.666;7.146;2023-02-15T16:54:59;10.80;93.10
5226;DHT22;2632;51.666;7.146;2023-02-15T16:57:32;10.70;93.60
5226;DHT22;2632;51.666;7.146;2023-02-15T17:00:26;10.60;94.20
5226;DHT22;2632;51.666;7.146;2023-02-15T17:13:26;10.00;95.80
5226;DHT22;2632;51.666;7.146;2023-02-15T17:20:57;9.70;96.80
5226;DHT22;2632;51.666;7.146;2023-02-15T17:23:30;9.50;97.00
5226;DHT22;2632;51.666;7.146;2023-02-15T17:25:58;9.30;97.00
5226;DHT22;2632;51.666;7.146;2023-02-15T17:28:28;9.20;97.80
5226;DHT22;2632;51.666;7.146;2023-02-15T17:30:57;9.10;98.50
5226;DHT22;2632;51.666;7.146;2023-02-15T17:38:36;8.80;98.90
5226;DHT22;2632;51.666;7.146;2023-02-15T17:41:03;8.70;99.10
5226;DHT22;2632;51.666;7.146;2023-02-15T17:43:30;8.60;99.30
5226;DHT22;2632;51.666;7.146;2023-02-15T17:45:57;8.70;99.30
5226;DHT22;2632;51.666;7.146;2023-02-15T17:48:35;8.60;99.10
5226;DHT22;2632;51.666;7.146;2023-02-15T17:51:04;8.70;99.10
5226;DHT22;2632;51.666;7.146;2023-02-15T17:53:32;8.90;98.80
5226;DHT22;2632;51.666;7.146;2023-02-15T17:55:58;9.00;97.90
5226;DHT22;2632;51.666;7.146;2023-02-15T17:58:25;9.10;97.50
5226;DHT22;2632;51.666;7.146;2023-02-15T18:00:54;9.20;97.20
5226;DHT22;2632;51.666;7.146;2023-02-15T18:03:51;9.30;97.20
5226;DHT22;2632;51.666;7.146;2023-02-15T18:06:38;9.30;97.20
5226;DHT22;2632;51.666;7.146;2023-02-15T18:09:27;9.20;97.30
5226;DHT22;2632;51.666;7.146;2023-02-15T18:12:24;9.20;97.20
5226;DHT22;2632;51.666;7.146;2023-02-15T18:14:52;9.20;97.40
5226;DHT22;2632;51.666;7.146;2023-02-15T18:17:26;9.10;97.80
5226;DHT22;2632;51.666;7.146;2023-02-15T18:19:53;9.00;98.00
5226;DHT22;2632;51.666;7.146;2023-02-15T18:22:20;8.90;98.50
5226;DHT22;2632;51.666;7.146;2023-02-15T18:24:47;8.80;98.70
5226;DHT22;2632;51.666;7.146;2023-02-15T18:27:15;8.70;98.70
5226;DHT22;2632;51.666;7.146;2023-02-15T18:29:42;8.80;98.50
5226;DHT22;2632;51.666;7.146;2023-02-15T18:32:15;9.00;98.30
5226;DHT22;2632;51.666;7.146;2023-02-15T18:34:43;9.00;98.40
5226;DHT22;2632;51.666;7.146;2023-02-15T18:37:19;9.00;98.40
5226;DHT22;2632;51.666;7.146;2023-02-15T18:39:48;8.90;99.00
5226;DHT22;2632;51.666;7.146;2023-02-15T18:42:25;8.90;98.30
5226;DHT22;2632;51.666;7.146;2023-02-15T18:45:15;8.90;98.90
5226;DHT22;2632;51.666;7.146;2023-02-15T18:47:43;9.00;99.10
5226;DHT22;2632;51.666;7.146;2023-02-15T18:50:14;8.90;98.90
5226;DHT22;2632;51.666;7.146;2023-02-15T18:52:44;8.80;99.00
5226;DHT22;2632;51.666;7.146;2023-02-15T18:57:44;8.70;99.40
5226;DHT22;2632;51.666;7.146;2023-02-15T19:00:22;8.60;99.90
5226;DHT22;2632;51.666;7.146;2023-02-15T19:02:51;8.60;99.90
5226;DHT22;2632;51.666;7.146;2023-02-15T19:05:19;8.70;99.70
5226;DHT22;2632;51.666;7.146;2023-02-15T19:07:48;8.70;99.90
5226;DHT22;2632;51.666;7.146;2023-02-15T19:10:21;8.80;99.40
5226;DHT22;2632;51.666;7.146;2023-02-15T19:12:49;8.90;99.20
5226;DHT22;2632;51.666;7.146;2023-02-15T19:15:20;8.80;99.80
5226;DHT22;2632;51.666;7.146;2023-02-15T19:17:47;8.60;99.90
5226;DHT22;2632;51.666;7.146;2023-02-15T19:20:19;8.40;99.90
5226;DHT22;2632;51.666;7.146;2023-02-15T19:22:47;8.30;99.90
5226;DHT22;2632;51.666;7.146;2023-02-15T19:25:18;8.30;99.90
5226;DHT22;2632;51.666;7.146;2023-02-15T19:27:46;8.30;99.90
5226;DHT22;2632;51.666;7.146;2023-02-15T19:32:44;8.10;99.90
5226;DHT22;2632;51.666;7.146;2023-02-15T19:35:16;8.00;99.90
5226;DHT22;2632;51.666;7.146;2023-02-15T19:37:47;7.80;99.90